Time;durP1;ratioP1;P1;durP2;ratioP2;P2;SDS_P1;SDS_P2;PMS_P1;PMS_P2;Temp;Humidity;BMP_temperature;BMP_pressure;BME280_temperature;BME280_humidity;BME280_pressure;Samples;Min_cycle;Max_cycle;Signal;HPM_P1;HPM_P2
2022/05/20 04:08:56;;;;;;;12.98;5.47;;;17.30;69.10;;;;;;4860141;29;20144;-70
2022/05/20 04:11:23;;;;;;;9.45;4.85;;;17.40;69.40;;;;;;4862454;29;20132;-71
2022/05/20 04:13:49;;;;;;;11.32;4.97;;;17.40;69.40;;;;;;4862306;29;20065;-71
2022/05/20 04:16:16;;;;;;;13.85;5.80;;;17.50;69.50;;;;;;4862194;29;20061;-67
2022/05/20 04:18:43;;;;;;;12.13;5.25;;;17.60;69.20;;;;;;4863289;29;20395;-74
2022/05/20 04:21:10;;;;;;;8.77;5.30;;;17.50;69.00;;;;;;4877185;29;20478;-71
2022/05/20 04:23:37;;;;;;;10.88;5.35;;;17.50;68.80;;;;;;4849341;29;20462;-70
2022/05/20 04:26:03;;;;;;;9.63;5.82;;;17.60;68.90;;;;;;4862718;29;20064;-71
2022/05/20 04:28:29;;;;;;;12.82;6.55;;;17.50;68.90;;;;;;4862026;29;20063;-72
2022/05/20 04:31:01;;;;;;;8.90;5.72;;;17.60;68.90;;;;;;4862014;29;20045;-73
2022/05/20 04:33:27;;;;;;;10.00;5.65;;;17.60;68.80;;;;;;4862608;29;20461;-73
2022/05/20 04:35:53;;;;;;;9.32;6.10;;;17.50;68.90;;;;;;4862489;29;20057;-74
2022/05/20 04:38:19;;;;;;;10.13;6.38;;;17.50;68.90;;;;;;4862721;29;20053;-72
2022/05/20 04:46:56;;;;;;;8.60;6.30;;;17.50;69.20;;;;;;4846760;29;20045;-71
2022/05/20 04:49:09;;;;;;;7.85;5.40;;;17.50;68.90;;;;;;4870268;29;20044;-72
2022/05/20 04:51:36;;;;;;;10.75;5.07;;;17.50;69.00;;;;;;4881090;29;20104;-70
2022/05/20 04:56:46;;;;;;;9.15;4.32;;;17.50;69.20;;;;;;4859580;29;20046;-72
2022/05/20 04:59:13;;;;;;;6.38;3.70;;;17.60;69.40;;;;;;4859832;29;20118;-72
2022/05/20 05:01:41;;;;;;;10.02;3.70;;;17.60;69.40;;;;;;4855925;29;20056;-79
2022/05/20 05:04:07;;;;;;;7.45;4.30;;;17.70;69.60;;;;;;4852101;29;20046;-75
2022/05/20 05:06:34;;;;;;;6.07;3.20;;;17.80;69.90;;;;;;4860610;29;20118;-78
2022/05/20 05:09:00;;;;;;;13.57;3.85;;;17.80;69.80;;;;;;4861979;29;20053;-77
2022/05/20 05:11:26;;;;;;;15.18;4.38;;;17.90;69.70;;;;;;4862127;29;20045;-77
2022/05/20 05:13:52;;;;;;;17.95;3.38;;;17.90;69.80;;;;;;4862178;29;20038;-78
2022/05/20 05:16:17;;;;;;;10.25;3.53;;;18.00;69.80;;;;;;4859228;29;20140;-76
2022/05/20 05:18:43;;;;;;;9.85;4.45;;;18.10;70.50;;;;;;4851757;29;20064;-74
2022/05/20 05:21:13;;;;;;;8.65;5.30;;;18.10;69.60;;;;;;4861467;29;20049;-71
2022/05/20 05:23:39;;;;;;;10.73;5.35;;;18.10;69.00;;;;;;4872710;29;20473;-69
2022/05/20 05:26:05;;;;;;;7.32;5.85;;;18.10;68.60;;;;;;4896137;29;20053;-69
2022/05/20 05:28:31;;;;;;;10.35;6.88;;;18.10;68.30;;;;;;4864722;29;20053;-74
2022/05/20 05:30:58;;;;;;;10.85;6.38;;;18.10;68.20;;;;;;4879117;29;20060;-74
2022/05/20 05:33:33;;;;;;;9.27;6.22;;;18.00;68.10;;;;;;4862254;29;20056;-79
2022/05/20 05:36:01;;;;;;;14.20;5.80;;;18.10;68.00;;;;;;4855054;29;20050;-81
2022/05/20 05:38:27;;;;;;;11.52;5.53;;;18.00;68.10;;;;;;4865638;29;20434;-80
2022/05/20 05:40:53;;;;;;;9.68;4.88;;;18.00;68.20;;;;;;4858834;29;20081;-77
2022/05/20 05:43:19;;;;;;;11.63;5.05;;;18.10;68.40;;;;;;4859544;29;20494;-77
2022/05/20 05:45:45;;;;;;;8.15;4.88;;;18.10;68.40;;;;;;4867075;29;20041;-76
2022/05/20 05:48:11;;;;;;;11.30;5.13;;;18.20;68.40;;;;;;4860695;29;20101;-79
2022/05/20 05:50:40;;;;;;;7.60;5.03;;;18.20;68.10;;;;;;4856125;29;20092;-81
2022/05/20 05:53:15;;;;;;;9.40;5.40;;;18.30;67.30;;;;;;4865008;29;20057;-77
2022/05/20 05:55:44;;;;;;;7.47;4.85;;;18.20;66.80;;;;;;4862446;29;20067;-78
2022/05/20 05:58:10;;;;;;;9.27;5.43;;;18.20;66.60;;;;;;4864271;29;20053;-73
2022/05/20 06:00:36;;;;;;;13.82;5.53;;;18.10;66.50;;;;;;4864522;29;20131;-74
2022/05/20 06:03:04;;;;;;;16.65;4.40;;;18.20;66.40;;;;;;4850653;29;20086;-74
2022/05/20 06:05:30;;;;;;;10.80;3.90;;;18.10;66.20;;;;;;4871444;29;20516;-75
2022/05/20 06:07:56;;;;;;;11.50;4.30;;;18.10;65.70;;;;;;4856934;29;20065;-73
2022/05/20 06:10:23;;;;;;;11.35;3.75;;;18.10;65.60;;;;;;4864722;29;20474;-73
2022/05/20 06:12:49;;;;;;;16.45;5.20;;;18.10;65.90;;;;;;4863312;29;20128;-72
2022/05/20 06:15:19;;;;;;;7.30;3.75;;;18.20;66.10;;;;;;4858317;29;20053;-80
2022/05/20 06:17:45;;;;;;;6.68;3.80;;;18.10;66.20;;;;;;4865067;29;20050;-76
2022/05/20 06:20:12;;;;;;;9.63;4.43;;;18.10;66.60;;;;;;4864739;29;20053;-78
2022/05/20 06:22:37;;;;;;;11.50;3.95;;;18.20;66.70;;;;;;4864037;29;20120;-82
2022/05/20 06:25:04;;;;;;;10.65;3.35;;;18.20;66.70;;;;;;4879216;29;20442;-71
2022/05/20 06:27:32;;;;;;;10.98;3.35;;;18.30;66.90;;;;;;4864146;29;20105;-75
2022/05/20 06:29:58;;;;;;;6.03;2.75;;;18.30;66.90;;;;;;4864658;29;20053;-71
2022/05/20 06:32:24;;;;;;;8.15;2.95;;;18.30;67.00;;;;;;4864612;29;20060;-79
2022/05/20 06:40:20;;;;;;;11.20;4.07;;;18.40;65.60;;;;;;4863951;29;20136;-80
2022/05/20 06:42:45;;;;;;;9.50;3.58;;;18.30;65.90;;;;;;4864234;29;20053;-81
2022/05/20 06:45:13;;;;;;;11.98;3.10;;;18.30;66.10;;;;;;4863458;29;20108;-77
2022/05/20 06:47:39;;;;;;;8.18;2.53;;;18.40;66.30;;;;;;4864107;29;20078;-79
2022/05/20 06:50:07;;;;;;;8.57;2.55;;;18.40;66.40;;;;;;4863215;29;20072;-79
2022/05/20 06:52:33;;;;;;;9.93;2.63;;;18.50;66.80;;;;;;4863797;29;20053;-78
2022/05/20 06:54:59;;;;;;;12.55;3.15;;;18.50;67.00;;;;;;4863614;29;20218;-77
2022/05/20 06:57:24;;;;;;;9.43;2.85;;;18.50;67.10;;;;;;4878166;29;20136;-73
2022/05/20 06:59:51;;;;;;;10.77;3.42;;;18.60;67.00;;;;;;4863955;29;20052;-73
2022/05/20 07:02:17;;;;;;;9.18;2.53;;;18.60;67.40;;;;;;4863929;29;20042;-74
2022/05/20 07:04:43;;;;;;;10.50;2.55;;;18.60;67.10;;;;;;4862653;29;20117;-76
2022/05/20 07:07:10;;;;;;;9.48;3.35;;;18.70;67.30;;;;;;4863795;29;20202;-73
2022/05/20 07:09:36;;;;;;;8.98;2.33;;;18.70;65.90;;;;;;4863203;29;20571;-73
2022/05/20 07:12:02;;;;;;;11.70;3.28;;;18.70;65.80;;;;;;4863545;29;20055;-75
2022/05/20 07:14:28;;;;;;;9.57;2.65;;;18.70;66.20;;;;;;4863483;29;20037;-75
2022/05/20 07:16:54;;;;;;;9.00;2.40;;;18.70;66.20;;;;;;4863655;29;20041;-74
2022/05/20 07:19:20;;;;;;;8.93;2.25;;;18.80;66.30;;;;;;4847600;29;20072;-76
2022/05/20 07:21:46;;;;;;;8.68;2.13;;;18.80;66.20;;;;;;4863110;29;20362;-75
2022/05/20 07:24:12;;;;;;;13.10;2.58;;;18.80;66.40;;;;;;4863395;29;20054;-76
2022/05/20 07:26:37;;;;;;;4.90;1.58;;;18.90;66.60;;;;;;4863354;29;20057;-75
2022/05/20 07:29:06;;;;;;;6.15;1.98;;;18.90;66.70;;;;;;4863615;29;20037;-77
2022/05/20 07:31:32;;;;;;;8.65;2.50;;;18.90;66.70;;;;;;4863341;29;20053;-76
2022/05/20 07:33:57;;;;;;;6.30;1.70;;;19.00;66.90;;;;;;4863395;29;20432;-76
2022/05/20 07:36:23;;;;;;;5.25;1.77;;;19.00;66.90;;;;;;4863149;29;20053;-77
2022/05/20 07:38:51;;;;;;;5.30;1.80;;;19.00;66.90;;;;;;4863146;29;20081;-75
2022/05/20 07:41:17;;;;;;;8.07;1.65;;;19.00;66.90;;;;;;4862159;29;20459;-75
2022/05/20 07:43:43;;;;;;;3.20;1.10;;;19.10;67.00;;;;;;4861986;29;20065;-77
2022/05/20 07:46:09;;;;;;;4.50;1.65;;;19.10;66.90;;;;;;4863183;29;20057;-75
2022/05/20 07:48:35;;;;;;;5.38;1.40;;;19.10;66.90;;;;;;4862885;29;20133;-75
2022/05/20 07:51:05;;;;;;;9.05;1.67;;;19.20;67.00;;;;;;4863179;29;20340;-76
2022/05/20 07:53:35;;;;;;;3.85;1.00;;;19.10;66.70;;;;;;4862804;29;20105;-76
2022/05/20 07:56:22;;;;;;;7.25;1.40;;;19.20;66.90;;;;;;4862447;29;20477;-75
2022/05/20 07:58:58;;;;;;;20.05;3.60;;;19.20;67.00;;;;;;4846764;29;20065;-78
2022/05/20 08:01:30;;;;;;;8.00;1.75;;;19.20;67.10;;;;;;4861928;29;20057;-77
2022/05/20 08:06:46;;;;;;;6.82;1.70;;;19.20;67.00;;;;;;4861228;29;20128;-74
2022/05/20 08:09:12;;;;;;;6.28;1.40;;;19.30;67.10;;;;;;4877022;29;20124;-74
2022/05/20 08:11:38;;;;;;;11.60;2.08;;;19.30;67.10;;;;;;4862421;29;20113;-76
2022/05/20 08:14:04;;;;;;;9.55;2.10;;;19.40;66.80;;;;;;4877141;29;20351;-73
2022/05/20 08:16:31;;;;;;;14.88;2.22;;;19.40;66.70;;;;;;4870827;29;20060;-74
2022/05/20 08:18:57;;;;;;;8.15;2.00;;;19.40;66.70;;;;;;4856310;29;20045;-74
2022/05/20 08:21:23;;;;;;;15.00;1.80;;;19.40;66.80;;;;;;4850728;29;20117;-73
2022/05/20 08:23:48;;;;;;;8.30;1.95;;;19.50;66.90;;;;;;4876501;29;20057;-76
2022/05/20 08:26:18;;;;;;;9.40;2.22;;;19.50;66.80;;;;;;4830824;29;20057;-75
2022/05/20 08:28:48;;;;;;;8.13;2.67;;;19.40;66.40;;;;;;4845836;29;20155;-76
2022/05/20 08:31:14;;;;;;;7.30;3.33;;;19.40;65.90;;;;;;4846126;29;20062;-76
2022/05/20 08:33:40;;;;;;;9.80;3.83;;;19.40;64.80;;;;;;4862158;29;20049;-76
2022/05/20 08:36:06;;;;;;;5.25;2.47;;;19.30;64.30;;;;;;4861457;29;20355;-75
2022/05/20 08:38:32;;;;;;;7.90;2.38;;;19.30;64.70;;;;;;4862467;29;20162;-75
2022/05/20 08:40:59;;;;;;;8.57;2.08;;;19.40;65.20;;;;;;4862155;29;20136;-76
2022/05/20 08:43:29;;;;;;;5.55;2.22;;;19.40;65.50;;;;;;4862283;29;20063;-77
2022/05/20 08:45:55;;;;;;;7.20;1.95;;;19.40;65.70;;;;;;4861427;29;20057;-77
2022/05/20 08:48:21;;;;;;;5.20;2.55;;;19.40;65.80;;;;;;4862465;29;20387;-74
2022/05/20 08:50:50;;;;;;;4.63;2.20;;;19.40;65.80;;;;;;4862214;29;20042;-75
2022/05/20 08:53:39;;;;;;;4.93;2.00;;;19.40;65.70;;;;;;4862492;29;20057;-77
2022/05/20 08:56:08;;;;;;;3.97;1.42;;;19.50;65.70;;;;;;4861920;29;20280;-76
2022/05/20 08:58:36;;;;;;;11.02;2.05;;;19.50;65.70;;;;;;4861950;29;20049;-74
2022/05/20 09:01:01;;;;;;;3.88;1.70;;;19.50;65.70;;;;;;4861964;29;20060;-76
2022/05/20 09:03:28;;;;;;;5.40;1.50;;;19.50;65.70;;;;;;4862184;29;20045;-76
2022/05/20 09:06:15;;;;;;;3.67;1.65;;;19.50;65.70;;;;;;4848193;29;20154;-77
2022/05/20 09:08:41;;;;;;;6.18;2.00;;;19.60;65.80;;;;;;4864911;29;20378;-75
2022/05/20 09:11:13;;;;;;;5.07;1.92;;;19.50;65.30;;;;;;4864358;29;20049;-75
2022/05/20 09:16:27;;;;;;;6.13;1.63;;;19.50;65.00;;;;;;4864526;29;20053;-74
2022/05/20 09:19:14;;;;;;;7.07;2.85;;;19.50;64.90;;;;;;4865075;29;20041;-75
2022/05/20 09:21:58;;;;;;;8.60;2.50;;;19.60;63.40;;;;;;4865430;29;20041;-76
2022/05/20 09:24:24;;;;;;;6.10;3.22;;;19.50;63.60;;;;;;4865742;29;20049;-74
2022/05/20 09:27:03;;;;;;;7.75;4.28;;;19.50;63.40;;;;;;4865518;29;20391;-74
2022/05/20 09:29:40;;;;;;;7.43;3.22;;;19.40;63.20;;;;;;4865616;29;20362;-75
2022/05/20 09:32:14;;;;;;;5.35;3.42;;;19.40;63.10;;;;;;4865151;29;20486;-75
2022/05/20 09:34:41;;;;;;;7.60;3.28;;;19.40;62.50;;;;;;4865198;29;20072;-75
2022/05/20 09:37:18;;;;;;;9.00;3.35;;;19.30;62.20;;;;;;4865182;29;20053;-73
2022/05/20 09:39:47;;;;;;;8.13;3.38;;;19.30;62.40;;;;;;4861746;29;20057;-73
2022/05/20 09:42:19;;;;;;;7.43;4.32;;;19.20;62.50;;;;;;4864493;29;20060;-72
2022/05/20 09:44:51;;;;;;;8.48;2.97;;;19.20;62.70;;;;;;4865337;29;20477;-75
2022/05/20 09:47:41;;;;;;;6.95;2.85;;;19.20;63.20;;;;;;4864934;29;20434;-76
2022/05/20 09:50:27;;;;;;;4.57;2.42;;;19.30;64.20;;;;;;4864952;29;20045;-75
2022/05/20 09:52:55;;;;;;;4.60;2.08;;;19.30;64.40;;;;;;4865056;29;20053;-76
2022/05/20 09:55:32;;;;;;;6.05;2.08;;;19.40;64.40;;;;;;4849847;29;20128;-76
2022/05/20 09:58:13;;;;;;;6.18;1.90;;;19.40;64.50;;;;;;4848842;29;20041;-76
2022/05/20 10:00:50;;;;;;;5.53;2.30;;;19.50;64.60;;;;;;4864880;29;20057;-75
2022/05/20 10:03:32;;;;;;;3.80;1.67;;;19.50;64.60;;;;;;4857054;29;20057;-73
2022/05/20 10:06:27;;;;;;;4.68;1.70;;;19.50;64.70;;;;;;4864033;29;20049;-76
2022/05/20 10:09:08;;;;;;;6.28;1.88;;;19.50;64.90;;;;;;4849264;29;20053;-74
2022/05/20 10:11:57;;;;;;;5.18;1.70;;;19.60;65.00;;;;;;4855847;29;20465;-74
2022/05/20 10:14:40;;;;;;;5.95;1.45;;;19.60;65.00;;;;;;4848435;29;20054;-75
2022/05/20 10:17:14;;;;;;;6.68;1.90;;;19.60;65.00;;;;;;4864660;29;20064;-76
2022/05/20 10:20:02;;;;;;;4.85;1.67;;;19.60;65.20;;;;;;4864252;29;20172;-76
2022/05/20 10:22:39;;;;;;;2.70;1.35;;;19.60;65.20;;;;;;4864006;29;20484;-75
2022/05/20 10:25:30;;;;;;;3.70;1.23;;;19.60;65.30;;;;;;4863649;29;20053;-75
2022/05/20 10:32:34;;;;;;;4.80;1.38;;;19.60;65.30;;;;;;4864397;29;20052;-74
2022/05/20 10:33:48;;;;;;;5.32;1.65;;;19.60;65.30;;;;;;4864445;29;20053;-76
2022/05/20 10:36:28;;;;;;;14.25;2.00;;;19.60;65.30;;;;;;4857459;29;20398;-75
2022/05/20 10:39:25;;;;;;;7.32;1.60;;;19.60;65.40;;;;;;4863801;29;20123;-75
2022/05/20 10:42:10;;;;;;;4.72;1.17;;;19.70;65.50;;;;;;4863984;29;20378;-74
2022/05/20 10:50:55;;;;;;;3.97;1.13;;;19.60;65.50;;;;;;4861457;29;20057;-78
2022/05/20 10:53:28;;;;;;;6.55;1.42;;;19.70;65.60;;;;;;4847500;29;20053;-75
2022/05/20 10:55:57;;;;;;;;;;;19.70;65.60;;;;;;4848944;29;20737;-75
2022/05/20 10:58:54;;;;;;;3.95;1.02;;;19.60;65.60;;;;;;4861677;29;20078;-75
2022/05/20 11:01:39;;;;;;;4.32;1.13;;;19.60;65.70;;;;;;4863375;29;20361;-75
2022/05/20 11:04:23;;;;;;;4.80;1.50;;;19.70;65.70;;;;;;4862927;29;20116;-77
2022/05/20 11:07:03;;;;;;;;;;;19.70;65.80;;;;;;4862239;29;20092;-74
2022/05/20 11:10:06;;;;;;;4.53;1.13;;;19.70;65.80;;;;;;4862825;29;19924;-75
2022/05/20 11:12:48;;;;;;;4.13;1.20;;;19.70;65.80;;;;;;4852570;29;20758;-75
2022/05/20 11:15:34;;;;;;;4.10;1.40;;;19.70;65.80;;;;;;4846279;29;20053;-75
2022/05/20 11:18:31;;;;;;;3.63;1.00;;;19.70;65.90;;;;;;4862550;29;20355;-74
2022/05/20 11:21:34;;;;;;;3.47;1.13;;;19.70;65.90;;;;;;4862559;29;20063;-76
2022/05/20 11:24:27;;;;;;;6.00;1.00;;;19.70;65.90;;;;;;4861861;29;20498;-75
2022/05/20 11:27:10;;;;;;;3.13;1.00;;;19.70;65.90;;;;;;4862341;29;20548;-74
2022/05/20 11:29:45;;;;;;;4.15;1.10;;;19.70;65.90;;;;;;4862583;29;20049;-74
2022/05/20 11:32:15;;;;;;;2.47;1.23;;;19.80;66.00;;;;;;4862197;29;20090;-74
2022/05/20 11:34:44;;;;;;;4.05;1.00;;;19.80;66.00;;;;;;4863109;29;20054;-75
2022/05/20 11:37:22;;;;;;;2.25;0.80;;;19.80;66.00;;;;;;4840923;29;20054;-75
2022/05/20 11:39:56;;;;;;;2.92;0.88;;;19.70;66.00;;;;;;4862929;29;20442;-74
2022/05/20 11:43:01;;;;;;;2.55;0.90;;;19.80;66.00;;;;;;4854863;29;20060;-74
2022/05/20 11:45:52;;;;;;;4.07;1.02;;;19.80;66.00;;;;;;4859909;29;20045;-76
2022/05/20 11:48:39;;;;;;;6.15;1.23;;;19.80;66.00;;;;;;4877864;29;20057;-73
2022/05/20 11:51:39;;;;;;;3.17;1.23;;;19.80;66.00;;;;;;4862796;29;20056;-75
2022/05/20 11:54:14;;;;;;;3.05;1.02;;;19.80;65.90;;;;;;4862725;29;20064;-75
2022/05/20 11:56:45;;;;;;;2.42;0.82;;;19.80;66.00;;;;;;4861936;29;20076;-76
2022/05/20 11:59:20;;;;;;;6.05;1.15;;;19.80;66.10;;;;;;4859586;29;20471;-75
2022/05/20 12:01:49;;;;;;;3.95;1.10;;;19.80;66.00;;;;;;4861601;29;20478;-76
2022/05/20 12:04:25;;;;;;;4.05;1.00;;;19.80;65.90;;;;;;5144945;27;20723;-75
2022/05/20 12:06:58;;;;;;;2.20;1.00;;;19.80;65.90;;;;;;5153081;27;20039;-76
2022/05/20 12:10:14;;;;;;;2.97;0.98;;;19.80;66.00;;;;;;5144972;27;20115;-76
2022/05/20 12:13:07;;;;;;;2.17;0.98;;;19.80;66.00;;;;;;5082713;28;20487;-75
2022/05/20 12:15:40;;;;;;;4.43;0.90;;;19.80;66.00;;;;;;5151771;27;20172;-74
2022/05/20 12:24:42;;;;;;;4.18;1.02;;;19.80;65.90;;;;;;5103111;28;20083;-75
2022/05/20 12:27:26;;;;;;;2.90;0.75;;;19.80;65.80;;;;;;5122371;27;20059;-77
2022/05/20 12:30:17;;;;;;;5.55;1.20;;;19.80;65.80;;;;;;5139638;27;20086;-74
2022/05/20 12:32:46;;;;;;;4.47;1.27;;;19.80;65.80;;;;;;5152642;27;20043;-76
2022/05/20 12:35:20;;;;;;;2.17;0.88;;;19.80;65.90;;;;;;5133525;27;20130;-74
2022/05/20 12:37:46;;;;;;;;;;;19.80;65.90;;;;;;5147944;27;20039;-75
2022/05/20 12:40:27;;;;;;;2.47;0.90;;;19.70;65.80;;;;;;5142489;27;20368;-74
2022/05/20 12:43:01;;;;;;;4.30;1.42;;;19.70;65.70;;;;;;5131674;27;20039;-75
2022/05/20 12:45:31;;;;;;;3.72;1.73;;;19.80;65.50;;;;;;5152551;27;20039;-73
2022/05/20 12:47:57;;;;;;;4.55;2.80;;;19.70;65.60;;;;;;5136818;27;20057;-75
2022/05/20 12:50:27;;;;;;;3.85;3.03;;;19.70;65.10;;;;;;5135247;27;20513;-75
2022/05/20 12:52:59;;;;;;;7.22;3.08;;;19.70;64.40;;;;;;5152828;27;20088;-76
2022/05/20 12:55:37;;;;;;;8.00;2.78;;;19.60;63.90;;;;;;5151308;27;20045;-75
2022/05/20 12:58:04;;;;;;;7.45;2.92;;;19.60;63.00;;;;;;5143874;27;20073;-74
2022/05/20 13:00:34;;;;;;;5.78;3.35;;;19.60;62.70;;;;;;5123189;27;20086;-73
2022/05/20 13:03:27;;;;;;;5.95;3.85;;;19.60;62.50;;;;;;5165093;27;20044;-74
2022/05/20 13:06:03;;;;;;;10.52;3.53;;;19.50;62.40;;;;;;5146773;27;20471;-74
2022/05/20 13:08:40;;;;;;;6.85;3.85;;;19.50;62.00;;;;;;5152003;27;20349;-74
2022/05/20 13:11:11;;;;;;;8.40;3.58;;;19.50;61.70;;;;;;5150466;27;20176;-76
2022/05/20 13:13:38;;;;;;;8.95;3.38;;;19.50;62.00;;;;;;5154295;27;20039;-77
2022/05/20 13:16:09;;;;;;;5.03;3.33;;;19.50;62.10;;;;;;5150838;27;20059;-75
2022/05/20 13:18:38;;;;;;;7.38;3.40;;;19.50;62.20;;;;;;5135012;27;20051;-75
2022/05/20 13:21:18;;;;;;;9.07;3.50;;;19.50;62.20;;;;;;5117018;28;20044;-73
2022/05/20 13:23:54;;;;;;;13.02;3.70;;;19.50;62.40;;;;;;5120905;27;20082;-73
2022/05/20 13:26:28;;;;;;;11.98;2.80;;;19.50;62.90;;;;;;5128295;27;20047;-73
2022/05/20 13:29:16;;;;;;;13.48;3.65;;;19.50;63.10;;;;;;5118299;28;20044;-73
2022/05/20 13:31:42;;;;;;;15.35;3.58;;;19.60;63.40;;;;;;5118264;27;20361;-73
2022/05/20 13:34:09;;;;;;;9.23;2.80;;;19.60;63.50;;;;;;5132695;27;20053;-74
2022/05/20 13:36:48;;;;;;;13.40;2.85;;;19.60;63.60;;;;;;5137211;27;20442;-75
2022/05/20 13:39:20;;;;;;;7.15;2.40;;;19.60;63.60;;;;;;5138022;27;20051;-72
2022/05/20 13:41:48;;;;;;;8.98;2.25;;;19.60;63.80;;;;;;5109995;27;20040;-72
2022/05/20 13:44:14;;;;;;;9.70;2.47;;;19.60;63.90;;;;;;5117458;27;20051;-73
2022/05/20 13:49:35;;;;;;;14.23;4.00;;;19.60;64.50;;;;;;5137251;27;20047;-73
2022/05/20 13:52:07;;;;;;;11.82;3.70;;;19.60;65.30;;;;;;5136944;27;20080;-72
2022/05/20 13:54:39;;;;;;;8.55;3.58;;;19.50;65.90;;;;;;5127326;27;20055;-74
2022/05/20 13:57:06;;;;;;;16.52;3.58;;;19.50;66.50;;;;;;5117731;28;20044;-73
2022/05/20 13:59:35;;;;;;;10.32;3.67;;;19.40;66.60;;;;;;5116624;27;20079;-72
2022/05/20 14:02:10;;;;;;;16.40;3.80;;;19.40;66.50;;;;;;5128436;27;20039;-74
2022/05/20 14:04:45;;;;;;;16.20;3.53;;;19.40;66.60;;;;;;5136933;27;20368;-73
2022/05/20 14:07:28;;;;;;;10.75;3.40;;;19.50;66.70;;;;;;5137441;27;20070;-71
2022/05/20 14:10:14;;;;;;;12.43;3.08;;;19.50;66.80;;;;;;5109987;27;20047;-72
2022/05/20 14:13:08;;;;;;;30.58;3.45;;;19.50;67.00;;;;;;5117180;27;20039;-74
2022/05/20 14:15:52;;;;;;;22.00;3.45;;;19.60;67.10;;;;;;5123160;27;20066;-73
2022/05/20 14:18:33;;;;;;;23.60;4.18;;;19.60;67.30;;;;;;5136622;27;20058;-75
2022/05/20 14:21:39;;;;;;;26.30;4.82;;;19.50;67.60;;;;;;5136184;27;20050;-73
2022/05/20 14:24:16;;;;;;;22.52;4.22;;;19.60;67.90;;;;;;5108167;28;20108;-75
2022/05/20 14:26:46;;;;;;;23.40;3.70;;;19.60;68.00;;;;;;5117407;27;20086;-77
2022/05/20 14:29:15;;;;;;;24.25;4.07;;;19.60;68.20;;;;;;5121684;27;20054;-72
2022/05/20 14:32:15;;;;;;;28.25;4.32;;;19.60;68.20;;;;;;5136382;27;20115;-76
2022/05/20 14:34:51;;;;;;;19.65;3.10;;;19.60;68.00;;;;;;5122020;27;20085;-73
2022/05/20 14:37:27;;;;;;;16.58;3.83;;;19.60;68.20;;;;;;5115693;28;20534;-72
2022/05/20 14:40:01;;;;;;;26.55;3.90;;;19.60;68.20;;;;;;5102942;28;20352;-72
2022/05/20 14:42:31;;;;;;;29.55;5.15;;;19.60;68.80;;;;;;5113473;28;20342;-72
2022/05/20 14:45:01;;;;;;;25.00;4.68;;;19.60;68.30;;;;;;5144383;27;20051;-74
2022/05/20 14:47:32;;;;;;;19.05;4.18;;;19.70;68.50;;;;;;5096561;28;20127;-74
2022/05/20 14:50:20;;;;;;;25.55;4.95;;;19.70;68.40;;;;;;5095354;28;20127;-72
2022/05/20 14:53:07;;;;;;;21.60;4.68;;;19.70;68.40;;;;;;5107603;28;20101;-73
2022/05/20 14:55:43;;;;;;;19.38;4.50;;;19.70;68.60;;;;;;5114219;28;20404;-73
2022/05/20 14:58:11;;;;;;;18.52;5.47;;;19.70;68.70;;;;;;5115916;28;20043;-77
2022/05/20 15:01:01;;;;;;;15.23;4.25;;;19.70;69.20;;;;;;5097430;28;20173;-74
2022/05/20 15:03:30;;;;;;;16.05;4.80;;;19.80;69.30;;;;;;5094443;28;20124;-78
2022/05/20 15:05:57;;;;;;;20.08;5.15;;;19.80;68.90;;;;;;5099131;28;20035;-72
2022/05/20 15:08:26;;;;;;;18.85;5.03;;;19.70;68.30;;;;;;5115790;28;20035;-72
2022/05/20 15:11:00;;;;;;;21.20;4.63;;;19.70;68.50;;;;;;5112321;28;20058;-73
2022/05/20 15:13:26;;;;;;;27.55;5.43;;;19.60;68.70;;;;;;5103281;28;20063;-74
2022/05/20 15:15:53;;;;;;;19.17;3.70;;;19.70;68.70;;;;;;5095997;28;20124;-72
2022/05/20 15:18:19;;;;;;;12.32;3.22;;;19.70;68.90;;;;;;5097765;28;20047;-74
2022/05/20 15:20:56;;;;;;;17.85;4.07;;;19.70;69.10;;;;;;5105487;28;20066;-72
2022/05/20 15:23:38;;;;;;;18.02;3.90;;;19.70;68.90;;;;;;5096683;28;20047;-69
2022/05/20 15:26:16;;;;;;;16.15;3.70;;;19.80;69.20;;;;;;5105477;28;20043;-73
2022/05/20 15:28:47;;;;;;;13.48;3.97;;;19.80;69.50;;;;;;5093594;28;20054;-73
2022/05/20 15:36:58;;;;;;;13.30;4.35;;;19.70;68.30;;;;;;5098578;28;20048;-72
2022/05/20 15:39:31;;;;;;;10.88;3.83;;;19.60;68.10;;;;;;5094004;28;20085;-73
2022/05/20 15:41:58;;;;;;;10.52;3.55;;;19.60;68.10;;;;;;5106096;28;20066;-73
2022/05/20 15:44:31;;;;;;;9.77;3.30;;;19.50;67.70;;;;;;5115121;28;20040;-72
2022/05/20 15:47:00;;;;;;;8.60;3.00;;;19.50;67.60;;;;;;5114435;28;20044;-71
2022/05/20 15:49:26;;;;;;;12.65;3.28;;;19.40;67.60;;;;;;5114154;28;20118;-73
2022/05/20 15:51:56;;;;;;;6.63;2.67;;;19.40;67.70;;;;;;5114663;28;20117;-72
2022/05/20 15:54:25;;;;;;;12.63;2.90;;;19.50;67.70;;;;;;5101028;28;20048;-73
2022/05/20 15:56:51;;;;;;;10.38;2.72;;;19.50;67.70;;;;;;5112554;28;20106;-74
2022/05/20 15:59:18;;;;;;;10.65;3.10;;;19.50;67.70;;;;;;5114778;28;20078;-73
2022/05/20 16:01:44;;;;;;;14.30;2.53;;;19.50;67.60;;;;;;5101757;28;20081;-73
2022/05/20 16:04:10;;;;;;;8.50;2.75;;;19.50;67.60;;;;;;5106564;28;20087;-73
2022/05/20 16:06:40;;;;;;;10.73;2.60;;;19.60;67.80;;;;;;5095133;28;20051;-77
2022/05/20 16:09:10;;;;;;;7.60;2.60;;;19.60;67.90;;;;;;5086593;28;20105;-75
2022/05/20 16:11:37;;;;;;;6.88;2.63;;;19.60;68.00;;;;;;5098943;28;20377;-74
2022/05/20 16:14:03;;;;;;;9.52;2.63;;;19.60;68.00;;;;;;5097180;28;20036;-73
2022/05/20 16:16:29;;;;;;;11.93;2.63;;;19.50;68.00;;;;;;5113490;28;20472;-73
2022/05/20 16:18:55;;;;;;;8.93;2.22;;;19.60;68.20;;;;;;5114381;28;20024;-73
2022/05/20 16:21:22;;;;;;;11.07;2.30;;;19.60;68.30;;;;;;5109981;28;20067;-72
2022/05/20 16:23:51;;;;;;;7.93;1.80;;;19.60;68.50;;;;;;5110481;28;20089;-73
2022/05/20 16:26:22;;;;;;;9.82;2.25;;;19.60;68.60;;;;;;5114447;28;20062;-73
2022/05/20 16:28:49;;;;;;;9.02;2.15;;;19.60;68.60;;;;;;5107202;28;20055;-72
2022/05/20 16:31:16;;;;;;;6.00;1.83;;;19.60;68.30;;;;;;5094780;28;20093;-72
2022/05/20 16:33:41;;;;;;;6.40;2.17;;;19.50;68.30;;;;;;5094995;28;20077;-74
2022/05/20 16:36:07;;;;;;;7.85;1.95;;;19.50;68.20;;;;;;5104191;28;20114;-74
2022/05/20 16:38:33;;;;;;;8.73;2.35;;;19.50;68.00;;;;;;5147875;27;20039;-74
2022/05/20 16:40:59;;;;;;;4.45;1.67;;;19.50;67.90;;;;;;5114003;28;20044;-73
2022/05/20 16:43:25;;;;;;;4.55;1.77;;;19.50;68.30;;;;;;5136125;27;20056;-74
2022/05/20 16:45:51;;;;;;;6.57;2.03;;;19.50;68.40;;;;;;5094551;28;20050;-74
2022/05/20 16:48:23;;;;;;;8.55;1.52;;;19.50;68.50;;;;;;5138325;27;20079;-73
2022/05/20 16:50:50;;;;;;;5.55;2.22;;;19.50;68.70;;;;;;5117580;28;20036;-76
2022/05/20 16:53:18;;;;;;;7.05;2.28;;;19.50;68.60;;;;;;5117886;28;20094;-68
2022/05/20 16:55:44;;;;;;;7.10;2.10;;;19.50;68.40;;;;;;5104048;27;20047;-69
2022/05/20 17:03:40;;;;;;;5.82;2.05;;;19.40;68.20;;;;;;5097479;28;20047;-74
2022/05/20 17:06:06;;;;;;;2.45;1.33;;;19.40;68.30;;;;;;5098130;28;20055;-72
2022/05/20 17:08:34;;;;;;;5.82;1.40;;;19.40;68.30;;;;;;5101103;28;20040;-74
2022/05/20 17:11:00;;;;;;;4.38;1.73;;;19.50;68.40;;;;;;5101750;28;20428;-73
2022/05/20 17:13:26;;;;;;;4.47;1.45;;;19.40;69.00;;;;;;5097055;28;20044;-74
2022/05/20 17:15:52;;;;;;;6.68;1.48;;;19.40;68.40;;;;;;5104254;28;20142;-74
2022/05/20 17:18:18;;;;;;;5.43;1.65;;;19.40;68.40;;;;;;5117536;28;20048;-73
2022/05/20 17:20:44;;;;;;;4.35;1.70;;;19.40;68.40;;;;;;5117732;28;20396;-73
2022/05/20 17:25:58;;;;;;;4.70;1.98;;;19.40;68.60;;;;;;5097062;28;20048;-73
2022/05/20 17:28:26;;;;;;;11.65;1.95;;;19.40;68.50;;;;;;5097816;28;20379;-73
2022/05/20 17:30:52;;;;;;;5.90;1.77;;;19.40;68.60;;;;;;5111438;28;20036;-73
2022/05/20 17:33:18;;;;;;;4.10;1.77;;;19.40;68.60;;;;;;5115981;28;20031;-74
2022/05/20 17:35:44;;;;;;;4.68;2.05;;;19.40;68.70;;;;;;5104925;28;20127;-73
2022/05/20 17:38:09;;;;;;;4.57;1.58;;;19.40;68.70;;;;;;5113706;28;20413;-74
2022/05/20 17:40:35;;;;;;;1.70;1.10;;;19.40;68.90;;;;;;5116334;28;20079;-73
2022/05/20 17:43:01;;;;;;;3.25;1.75;;;19.30;68.90;;;;;;5117283;28;20052;-74
2022/05/20 17:45:26;;;;;;;4.68;1.70;;;19.30;68.80;;;;;;5097813;28;20055;-73
2022/05/20 17:47:52;;;;;;;4.38;2.10;;;19.30;69.10;;;;;;5096363;28;20059;-75
2022/05/20 17:50:18;;;;;;;3.25;1.73;;;19.30;68.80;;;;;;5097327;28;20060;-74
2022/05/20 17:52:43;;;;;;;4.05;1.60;;;19.30;68.80;;;;;;5117054;28;20054;-73
2022/05/20 17:55:09;;;;;;;6.80;2.20;;;19.20;68.40;;;;;;5113186;28;20381;-73
2022/05/20 17:57:36;;;;;;;4.20;1.98;;;19.20;68.50;;;;;;5114165;28;20066;-75
2022/05/20 18:00:04;;;;;;;4.60;1.50;;;19.20;68.50;;;;;;5102707;28;20031;-73
2022/05/20 18:02:30;;;;;;;6.90;1.88;;;19.20;69.00;;;;;;5101170;28;20131;-73
2022/05/20 18:04:56;;;;;;;3.17;1.40;;;19.20;69.10;;;;;;5109369;28;20357;-73
2022/05/20 18:07:22;;;;;;;3.13;1.63;;;19.20;69.00;;;;;;5132558;27;20052;-72
2022/05/20 18:09:48;;;;;;;4.55;1.77;;;19.20;68.60;;;;;;5099433;28;20421;-73